createdAt,value
2018-03-25T00:00:29.347Z,57.15
2018-03-25T00:01:35.072Z,60.10
2018-03-25T00:02:40.814Z,61.45
2018-03-25T00:03:47.400Z,61.17
2018-03-25T00:04:53.147Z,59.58
2018-03-25T00:05:58.926Z,60.55
2018-03-25T00:07:04.647Z,60.85
2018-03-25T00:08:10.555Z,59.25
2018-03-25T00:09:16.306Z,62.42
2018-03-25T00:10:22.012Z,58.13
2018-03-25T00:11:27.721Z,50.85
2018-03-25T00:12:33.449Z,62.92
2018-03-25T00:13:39.282Z,70.25
2018-03-25T00:14:45.169Z,64.22
2018-03-25T00:15:50.961Z,57.45
2018-03-25T00:16:56.680Z,64.90
2018-03-25T00:18:03.158Z,59.30
2018-03-25T00:19:08.848Z,60.30
2018-03-25T00:20:15.429Z,68.57
2018-03-25T00:21:21.942Z,61.92
2018-03-25T00:22:27.648Z,62.35
2018-03-25T00:23:33.376Z,62.70
2018-03-25T00:24:39.908Z,63.70
2018-03-25T00:25:45.645Z,60.38
2018-03-25T00:26:51.362Z,68.50
2018-03-25T00:27:57.229Z,60.00
2018-03-25T00:29:02.947Z,57.65
2018-03-25T00:30:08.697Z,58.92
2018-03-25T00:31:14.423Z,59.65
2018-03-25T00:32:20.130Z,60.58
2018-03-25T00:33:26.663Z,58.47
2018-03-25T00:34:32.373Z,54.72
2018-03-25T00:35:37.526Z,59.20
2018-03-25T00:36:43.260Z,57.90
2018-03-25T00:37:49.055Z,54.25
2018-03-25T00:38:54.748Z,54.72
2018-03-25T00:40:01.222Z,57.05
2018-03-25T00:41:07.699Z,57.40
2018-03-25T00:42:14.213Z,55.70
2018-03-25T00:43:19.586Z,48.83
2018-03-25T00:44:26.092Z,53.20
2018-03-25T00:45:31.984Z,47.22
2018-03-25T00:46:38.506Z,51.75
2018-03-25T00:47:44.375Z,52.13
2018-03-25T00:48:51.033Z,50.88
2018-03-25T00:49:56.836Z,52.65
2018-03-25T00:51:02.688Z,51.63
2018-03-25T00:52:08.401Z,53.22
2018-03-25T00:53:14.120Z,59.17
2018-03-25T00:54:20.629Z,56.95
2018-03-25T00:55:26.345Z,50.90
2018-03-25T00:56:32.085Z,51.70
2018-03-25T00:57:37.805Z,52.62
2018-03-25T00:58:44.111Z,50.92
2018-03-25T00:59:49.822Z,52.05
2018-03-25T01:00:56.452Z,54.90
2018-03-25T01:02:02.984Z,50.28
2018-03-25T01:03:08.715Z,48.55
2018-03-25T01:04:14.450Z,53.38
2018-03-25T01:05:20.205Z,56.05
2018-03-25T01:06:26.007Z,52.03
2018-03-25T01:07:31.761Z,50.63
2018-03-25T01:08:37.469Z,61.17
2018-03-25T01:09:43.955Z,56.60
2018-03-25T01:10:49.657Z,57.30
2018-03-25T01:11:55.400Z,53.83
2018-03-25T01:13:01.932Z,55.12
2018-03-25T01:14:08.548Z,48.85
2018-03-25T01:15:14.301Z,51.42
2018-03-25T01:16:19.331Z,55.55
2018-03-25T01:17:25.052Z,54.80
2018-03-25T01:18:30.769Z,50.78
2018-03-25T01:19:37.244Z,59.38
2018-03-25T01:20:43.728Z,60.38
2018-03-25T01:21:49.437Z,52.83
2018-03-25T01:22:55.921Z,53.78
2018-03-25T01:24:01.628Z,54.65
2018-03-25T01:25:08.096Z,51.90
2018-03-25T01:26:14.592Z,54.53
2018-03-25T01:27:20.310Z,46.35
2018-03-25T01:28:26.021Z,46.90
2018-03-25T01:29:31.725Z,51.80
2018-03-25T01:30:37.422Z,57.45
2018-03-25T01:31:43.160Z,52.85
2018-03-25T01:32:49.634Z,52.58
2018-03-25T01:33:55.336Z,52.17
2018-03-25T01:35:01.815Z,53.50
2018-03-25T01:36:08.695Z,45.63
2018-03-25T01:37:14.436Z,56.72
2018-03-25T01:38:20.920Z,50.97
2018-03-25T01:39:26.617Z,51.90
2018-03-25T01:40:33.079Z,49.40
2018-03-25T01:41:38.784Z,50.65
2018-03-25T01:42:44.500Z,54.03
2018-03-25T01:43:50.205Z,53.08
2018-03-25T01:44:56.678Z,53.47
2018-03-25T01:46:02.384Z,48.40
2018-03-25T01:47:08.091Z,53.72
2018-03-25T01:48:13.822Z,51.50
2018-03-25T01:49:19.520Z,54.72
2018-03-25T01:50:26.006Z,49.25
2018-03-25T01:51:31.717Z,48.85
2018-03-25T01:52:38.181Z,53.95
2018-03-25T01:53:43.910Z,48.60
2018-03-25T01:54:50.389Z,50.60
2018-03-25T01:55:56.136Z,52.38
2018-03-25T01:57:01.847Z,49.88
2018-03-25T01:58:07.535Z,51.65
2018-03-25T01:59:13.267Z,53.03
2018-03-25T02:00:18.999Z,48.15
2018-03-25T02:01:24.704Z,51.37
2018-03-25T02:02:31.179Z,49.17
2018-03-25T02:03:36.891Z,55.65
2018-03-25T02:04:42.619Z,48.58
2018-03-25T02:05:48.372Z,50.30
2018-03-25T02:06:55.047Z,52.25
2018-03-25T02:08:01.635Z,53.33
2018-03-25T02:09:08.368Z,53.38
2018-03-25T02:10:14.102Z,50.97
2018-03-25T02:11:20.077Z,48.78
2018-03-25T02:12:26.548Z,58.55
2018-03-25T02:13:32.281Z,52.83
2018-03-25T02:14:38.133Z,51.60
2018-03-25T02:15:43.861Z,48.55
2018-03-25T02:16:50.500Z,51.63
2018-03-25T02:17:56.783Z,50.22
2018-03-25T02:19:02.535Z,49.67
2018-03-25T02:20:08.241Z,51.10
2018-03-25T02:21:13.966Z,55.92
2018-03-25T02:22:19.676Z,47.90
2018-03-25T02:23:25.401Z,53.08
2018-03-25T02:24:31.097Z,48.30
2018-03-25T02:25:36.797Z,52.58
2018-03-25T02:26:42.538Z,55.40
2018-03-25T02:27:48.236Z,49.90
2018-03-25T02:28:54.712Z,49.33
2018-03-25T02:30:00.422Z,49.15
2018-03-25T02:31:06.568Z,48.08
2018-03-25T02:32:13.626Z,44.97
2018-03-25T02:33:19.333Z,51.30
2018-03-25T02:34:25.045Z,48.60
2018-03-25T02:35:31.520Z,54.60
2018-03-25T02:36:37.219Z,47.78
2018-03-25T02:37:42.952Z,50.55
2018-03-25T02:38:48.655Z,52.08
2018-03-25T02:39:54.367Z,49.15
2018-03-25T02:41:00.896Z,50.20
2018-03-25T02:42:06.597Z,53.92
2018-03-25T02:43:12.337Z,50.45
2018-03-25T02:44:18.040Z,51.53
2018-03-25T02:45:24.577Z,47.80
2018-03-25T02:46:30.444Z,52.72
2018-03-25T02:47:36.904Z,53.80
2018-03-25T02:48:43.685Z,51.30
2018-03-25T02:49:49.397Z,54.30
2018-03-25T02:50:55.884Z,50.08
2018-03-25T02:52:01.627Z,48.40
2018-03-25T02:53:07.353Z,52.05
2018-03-25T02:54:13.093Z,54.38
2018-03-25T02:55:19.566Z,56.15
2018-03-25T02:56:26.037Z,51.45
2018-03-25T02:57:31.736Z,49.47
2018-03-25T02:58:38.214Z,52.10
2018-03-25T02:59:43.942Z,51.20
2018-03-25T03:00:49.666Z,50.53
2018-03-25T03:01:56.898Z,50.95
2018-03-25T03:03:02.607Z,50.33
2018-03-25T03:04:09.084Z,57.97
2018-03-25T03:05:14.814Z,56.50
2018-03-25T03:06:20.516Z,53.58
2018-03-25T03:07:26.230Z,48.95
2018-03-25T03:08:32.127Z,51.47
2018-03-25T03:09:38.608Z,53.22
2018-03-25T03:10:44.321Z,51.50
2018-03-25T03:11:50.807Z,49.15
2018-03-25T03:12:56.721Z,52.88
2018-03-25T03:14:03.392Z,49.58
2018-03-25T03:15:09.111Z,52.28
2018-03-25T03:16:14.836Z,47.33
2018-03-25T03:17:20.576Z,49.53
2018-03-25T03:18:26.301Z,47.17
2018-03-25T03:19:32.000Z,48.60
2018-03-25T03:20:38.478Z,54.47
2018-03-25T03:21:44.210Z,54.63
2018-03-25T03:22:49.936Z,49.17
2018-03-25T03:23:56.582Z,51.72
2018-03-25T03:25:02.294Z,50.65
2018-03-25T03:26:08.014Z,45.75
2018-03-25T03:27:13.744Z,50.88
2018-03-25T03:28:19.472Z,50.95
2018-03-25T03:29:25.182Z,49.90
2018-03-25T03:30:31.094Z,45.22
2018-03-25T03:31:36.800Z,48.08
2018-03-25T03:32:42.516Z,50.60
2018-03-25T03:33:49.001Z,50.63
2018-03-25T03:34:54.717Z,44.58
2018-03-25T03:36:01.186Z,49.95
2018-03-25T03:37:07.657Z,53.75
2018-03-25T03:38:13.393Z,46.63
2018-03-25T03:39:19.100Z,53.13
2018-03-25T03:40:24.869Z,49.45
2018-03-25T03:41:31.340Z,49.88
2018-03-25T03:42:37.045Z,45.08
2018-03-25T03:43:42.796Z,44.40
2018-03-25T03:44:49.335Z,48.15
2018-03-25T03:45:55.040Z,51.50
2018-03-25T03:47:00.749Z,55.53
2018-03-25T03:48:07.323Z,46.20
2018-03-25T03:49:13.050Z,52.08
2018-03-25T03:50:19.533Z,47.85
2018-03-25T03:51:25.232Z,53.83
2018-03-25T03:52:30.932Z,49.72
2018-03-25T03:53:36.635Z,51.92
2018-03-25T03:54:42.364Z,47.55
2018-03-25T03:55:48.854Z,51.60
2018-03-25T03:56:54.563Z,50.85
2018-03-25T03:58:01.065Z,52.83
2018-03-25T03:59:06.780Z,49.60
2018-03-25T04:00:13.260Z,50.50
2018-03-25T04:01:18.965Z,59.00
2018-03-25T04:02:25.438Z,56.53
2018-03-25T04:03:31.148Z,52.03
2018-03-25T04:04:36.867Z,50.25
2018-03-25T04:05:42.596Z,59.83
2018-03-25T04:06:48.458Z,52.17
2018-03-25T04:07:54.176Z,51.40
2018-03-25T04:08:59.921Z,57.65
2018-03-25T04:10:05.629Z,57.03
2018-03-25T04:11:11.358Z,53.65
2018-03-25T04:12:17.853Z,59.17
2018-03-25T04:13:23.560Z,52.17
2018-03-25T04:14:30.100Z,55.38
2018-03-25T04:15:35.876Z,57.17
2018-03-25T04:16:41.613Z,54.35
2018-03-25T04:17:47.317Z,59.00
2018-03-25T04:18:53.466Z,55.33
2018-03-25T04:19:59.172Z,62.55
2018-03-25T04:21:04.687Z,57.90
2018-03-25T04:22:10.408Z,61.08
2018-03-25T04:23:16.125Z,59.58
2018-03-25T04:24:21.826Z,64.15
2018-03-25T04:25:27.540Z,57.97
2018-03-25T04:26:33.256Z,58.47
2018-03-25T04:27:38.975Z,57.42
2018-03-25T04:28:44.677Z,51.75
2018-03-25T04:29:50.380Z,53.85
2018-03-25T04:30:56.856Z,72.20
2018-03-25T04:32:02.569Z,63.67
2018-03-25T04:33:08.293Z,52.97
2018-03-25T04:34:14.005Z,64.43
2018-03-25T04:35:19.723Z,60.45
2018-03-25T04:36:25.458Z,57.38
2018-03-25T04:37:31.152Z,57.90
2018-03-25T04:38:36.901Z,67.85
2018-03-25T04:39:42.604Z,56.03
2018-03-25T04:40:48.300Z,55.65
2018-03-25T04:41:54.822Z,51.72
2018-03-25T04:43:00.518Z,54.95
2018-03-25T04:44:07.004Z,52.55
2018-03-25T04:45:12.707Z,57.22
2018-03-25T04:46:19.188Z,55.15
2018-03-25T04:47:24.886Z,52.62
2018-03-25T04:48:30.433Z,50.65
2018-03-25T04:49:36.934Z,51.88
2018-03-25T04:50:42.857Z,56.08
2018-03-25T04:51:49.423Z,54.67
2018-03-25T04:52:56.051Z,57.28
2018-03-25T04:54:01.823Z,58.50
2018-03-25T04:55:07.562Z,49.40
2018-03-25T04:56:13.256Z,52.05
2018-03-25T04:57:18.971Z,49.50
2018-03-25T04:58:24.676Z,48.15
2018-03-25T04:59:30.420Z,49.80
2018-03-25T05:00:36.150Z,54.20
2018-03-25T05:01:42.615Z,52.40
2018-03-25T05:02:48.321Z,50.22
2018-03-25T05:03:54.054Z,50.95
2018-03-25T05:04:59.757Z,48.42
2018-03-25T05:06:05.158Z,54.47
2018-03-25T05:07:10.868Z,52.55
2018-03-25T05:08:16.577Z,49.35
2018-03-25T05:09:22.297Z,58.15
2018-03-25T05:10:28.044Z,51.55
2018-03-25T05:11:33.783Z,43.17
2018-03-25T05:12:39.523Z,54.60
2018-03-25T05:13:45.234Z,44.00
2018-03-25T05:14:50.928Z,47.97
2018-03-25T05:15:56.650Z,50.88
2018-03-25T05:17:02.364Z,53.45
2018-03-25T05:18:08.841Z,48.45
2018-03-25T05:19:14.570Z,57.33
2018-03-25T05:20:21.044Z,54.55
2018-03-25T05:21:26.789Z,49.13
2018-03-25T05:22:32.509Z,48.08
2018-03-25T05:23:39.281Z,57.42
2018-03-25T05:24:44.989Z,50.33
2018-03-25T05:25:51.456Z,52.95
2018-03-25T05:26:57.950Z,48.87
2018-03-25T05:28:03.704Z,52.13
2018-03-25T05:29:10.350Z,48.87
2018-03-25T05:30:16.061Z,49.63
2018-03-25T05:31:22.601Z,50.45
2018-03-25T05:32:28.297Z,56.60
2018-03-25T05:33:34.037Z,54.00
2018-03-25T05:34:39.755Z,53.10
2018-03-25T05:35:45.453Z,55.88
2018-03-25T05:36:51.159Z,54.55
2018-03-25T05:37:56.870Z,63.45
2018-03-25T05:39:02.610Z,57.33
2018-03-25T05:40:09.097Z,57.03
2018-03-25T05:41:15.554Z,59.80
2018-03-25T05:42:21.252Z,52.92
2018-03-25T05:43:26.981Z,57.80
2018-03-25T05:44:32.740Z,57.25
2018-03-25T05:45:38.458Z,48.78
2018-03-25T05:46:44.159Z,50.97
2018-03-25T05:47:49.902Z,49.50
2018-03-25T05:48:55.601Z,59.47
2018-03-25T05:50:01.334Z,47.47
2018-03-25T05:51:07.024Z,50.72
2018-03-25T05:52:12.749Z,50.25
2018-03-25T05:53:18.460Z,46.00
2018-03-25T05:54:24.160Z,50.00
2018-03-25T05:55:29.904Z,51.15
2018-03-25T05:56:35.420Z,49.72
2018-03-25T05:57:41.150Z,49.53
2018-03-25T05:58:46.851Z,49.05
2018-03-25T05:59:52.643Z,54.13
2018-03-25T06:00:58.398Z,47.72
2018-03-25T06:02:04.108Z,53.58
2018-03-25T06:03:10.592Z,46.85
2018-03-25T06:04:16.402Z,48.58
2018-03-25T06:05:22.118Z,48.83
2018-03-25T06:06:27.840Z,49.83
2018-03-25T06:07:33.440Z,52.72
2018-03-25T06:08:39.141Z,48.83
2018-03-25T06:09:45.614Z,47.13
2018-03-25T06:10:51.334Z,51.13
2018-03-25T06:11:57.072Z,47.42
2018-03-25T06:13:02.792Z,55.05
2018-03-25T06:14:08.518Z,49.55
2018-03-25T06:15:14.215Z,52.40
2018-03-25T06:16:20.698Z,49.13
2018-03-25T06:17:26.430Z,43.85
2018-03-25T06:18:32.133Z,50.97
2018-03-25T06:19:37.836Z,52.70
2018-03-25T06:20:43.548Z,49.47
2018-03-25T06:21:50.020Z,48.97
2018-03-25T06:22:55.750Z,51.42
2018-03-25T06:24:02.220Z,51.63
2018-03-25T06:25:07.971Z,50.30
2018-03-25T06:26:14.621Z,50.00
2018-03-25T06:27:20.321Z,55.33
2018-03-25T06:28:26.812Z,52.80
2018-03-25T06:29:32.202Z,50.40
2018-03-25T06:30:37.912Z,53.87
2018-03-25T06:31:43.416Z,52.13
2018-03-25T06:32:49.897Z,48.65
2018-03-25T06:33:55.679Z,47.55
2018-03-25T06:35:01.378Z,50.97
2018-03-25T06:36:07.090Z,52.72
2018-03-25T06:37:13.559Z,48.15
2018-03-25T06:38:19.368Z,49.67
2018-03-25T06:39:25.874Z,49.92
2018-03-25T06:40:31.580Z,49.50
2018-03-25T06:41:37.286Z,48.87
2018-03-25T06:42:43.095Z,53.95
2018-03-25T06:43:48.807Z,50.10
2018-03-25T06:44:54.537Z,49.70
2018-03-25T06:46:00.249Z,51.13
2018-03-25T06:47:05.633Z,50.85
2018-03-25T06:48:12.109Z,51.75
2018-03-25T06:49:18.159Z,51.33
2018-03-25T06:50:24.509Z,50.28
2018-03-25T06:51:30.333Z,50.05
2018-03-25T06:52:36.815Z,52.38
2018-03-25T06:53:42.525Z,48.20
2018-03-25T06:54:49.000Z,51.92
2018-03-25T06:55:55.497Z,48.67
2018-03-25T06:57:01.200Z,52.28
2018-03-25T06:58:07.678Z,51.17
2018-03-25T06:59:13.380Z,50.45
2018-03-25T07:00:19.857Z,51.05
2018-03-25T07:01:25.593Z,48.60
2018-03-25T07:02:32.064Z,48.20
2018-03-25T07:03:37.780Z,48.33
2018-03-25T07:04:43.478Z,52.13
2018-03-25T07:05:49.190Z,47.95
2018-03-25T07:06:54.925Z,50.12
2018-03-25T07:08:00.643Z,47.80
2018-03-25T07:09:06.829Z,47.65
2018-03-25T07:10:12.545Z,48.40
2018-03-25T07:11:19.017Z,50.60
2018-03-25T07:12:24.764Z,50.15
2018-03-25T07:13:30.473Z,48.92
2018-03-25T07:14:37.161Z,48.95
2018-03-25T07:15:42.872Z,46.30
2018-03-25T07:16:49.369Z,47.83
2018-03-25T07:17:55.112Z,56.45
2018-03-25T07:19:00.816Z,48.17
2018-03-25T07:20:07.292Z,47.15
2018-03-25T07:21:13.572Z,61.08
2018-03-25T07:22:19.294Z,47.40
2018-03-25T07:23:25.785Z,50.65
2018-03-25T07:24:31.493Z,46.08
2018-03-25T07:25:37.208Z,47.78
2018-03-25T07:26:43.685Z,51.30
2018-03-25T07:27:49.478Z,48.28
2018-03-25T07:28:55.200Z,51.22
2018-03-25T07:30:00.900Z,48.50
2018-03-25T07:31:07.483Z,50.28
2018-03-25T07:32:13.192Z,50.80
2018-03-25T07:33:19.665Z,48.47
2018-03-25T07:34:25.396Z,50.45
2018-03-25T07:35:31.978Z,47.67
2018-03-25T07:36:37.675Z,50.65
2018-03-25T07:37:43.420Z,48.00
2018-03-25T07:38:49.312Z,50.28
2018-03-25T07:39:55.059Z,48.70
2018-03-25T07:41:00.438Z,51.37
2018-03-25T07:42:05.939Z,48.13
2018-03-25T07:43:11.646Z,51.58
2018-03-25T07:44:18.293Z,49.50
2018-03-25T07:45:24.827Z,49.40
2018-03-25T07:46:30.545Z,52.22
2018-03-25T07:47:36.269Z,52.30
2018-03-25T07:48:41.993Z,47.28
2018-03-25T07:49:47.739Z,46.78
2018-03-25T07:50:53.481Z,51.47
2018-03-25T07:51:59.214Z,49.42
2018-03-25T07:53:05.705Z,46.78
2018-03-25T07:54:11.439Z,50.45
2018-03-25T07:55:17.172Z,48.67
2018-03-25T07:56:22.925Z,44.47
2018-03-25T07:57:28.655Z,47.10
2018-03-25T07:58:34.384Z,46.83
2018-03-25T07:59:40.107Z,45.63
2018-03-25T08:00:46.584Z,53.50
2018-03-25T08:01:52.342Z,48.08
2018-03-25T08:02:58.158Z,48.28
2018-03-25T08:04:04.647Z,54.58
2018-03-25T08:05:10.420Z,50.85
2018-03-25T08:06:16.907Z,49.80
2018-03-25T08:07:23.475Z,47.38
2018-03-25T08:08:29.955Z,52.03
2018-03-25T08:09:35.694Z,49.40
2018-03-25T08:10:41.422Z,48.92
2018-03-25T08:11:47.182Z,45.30
2018-03-25T08:12:52.966Z,50.12
2018-03-25T08:13:58.742Z,49.28
2018-03-25T08:15:04.889Z,47.60
2018-03-25T08:16:10.294Z,45.88
2018-03-25T08:17:16.288Z,44.88
2018-03-25T08:18:22.485Z,47.62
2018-03-25T08:19:29.002Z,46.47
2018-03-25T08:20:34.728Z,46.40
2018-03-25T08:21:40.450Z,47.38
2018-03-25T08:22:46.937Z,46.13
2018-03-25T08:23:52.688Z,44.58
2018-03-25T08:24:58.419Z,49.65
2018-03-25T08:26:04.157Z,46.13
2018-03-25T08:27:09.868Z,48.67
2018-03-25T08:28:15.618Z,48.33
2018-03-25T08:29:21.362Z,43.75
2018-03-25T08:30:28.087Z,43.97
2018-03-25T08:31:33.851Z,45.72
2018-03-25T08:32:39.567Z,44.40
2018-03-25T08:33:45.285Z,44.78
2018-03-25T08:34:51.771Z,44.47
2018-03-25T08:35:57.489Z,47.75
2018-03-25T08:37:03.280Z,44.67
2018-03-25T08:38:09.784Z,45.65
2018-03-25T08:39:15.580Z,45.97
2018-03-25T08:40:22.145Z,47.60
2018-03-25T08:41:28.761Z,44.20
2018-03-25T08:42:34.479Z,44.63
2018-03-25T08:43:40.204Z,46.47
2018-03-25T08:44:46.686Z,45.50
2018-03-25T08:45:52.441Z,44.47
2018-03-25T08:46:58.509Z,44.53
2018-03-25T08:48:04.331Z,45.45
2018-03-25T08:49:10.166Z,48.85
2018-03-25T08:50:15.891Z,46.75
2018-03-25T08:51:21.734Z,45.47
2018-03-25T08:52:26.943Z,45.25
2018-03-25T08:53:33.425Z,45.88
2018-03-25T08:54:39.227Z,45.35
2018-03-25T08:55:45.716Z,50.30
2018-03-25T08:56:51.475Z,46.55
2018-03-25T08:57:57.017Z,46.00
2018-03-25T08:59:03.199Z,43.72
2018-03-25T09:00:10.698Z,43.40
2018-03-25T09:01:17.470Z,46.05
2018-03-25T09:02:24.133Z,45.22
2018-03-25T09:03:30.772Z,46.83
2018-03-25T09:04:36.501Z,45.63
2018-03-25T09:05:42.231Z,47.65
2018-03-25T09:06:48.049Z,45.88
2018-03-25T09:07:53.985Z,44.85
2018-03-25T09:08:59.933Z,45.95
2018-03-25T09:10:05.800Z,47.97
2018-03-25T09:11:11.673Z,46.97
2018-03-25T09:12:17.398Z,44.67
2018-03-25T09:13:23.333Z,43.03
2018-03-25T09:14:29.098Z,47.75
2018-03-25T09:15:39.266Z,44.38
2018-03-25T09:16:45.249Z,45.55
2018-03-25T09:17:51.319Z,41.63
2018-03-25T09:18:57.993Z,46.88
2018-03-25T09:20:03.944Z,40.05
2018-03-25T09:21:09.677Z,36.80
2018-03-25T09:22:15.733Z,39.03
2018-03-25T09:23:21.471Z,43.33
2018-03-25T09:24:28.010Z,44.20
2018-03-25T09:25:33.740Z,44.97
2018-03-25T09:26:39.454Z,45.60
2018-03-25T09:27:46.095Z,45.22
2018-03-25T09:28:53.311Z,45.30
2018-03-25T09:29:59.061Z,43.35
2018-03-25T09:31:04.924Z,39.20
2018-03-25T09:32:10.646Z,42.13
2018-03-25T09:33:16.362Z,37.53
2018-03-25T09:34:22.144Z,34.42
2018-03-25T09:35:27.897Z,40.03
2018-03-25T09:36:33.631Z,39.83
2018-03-25T09:37:39.372Z,39.67
2018-03-25T09:38:45.165Z,38.15
2018-03-25T09:39:51.654Z,40.30
2018-03-25T09:40:57.385Z,40.83
2018-03-25T09:42:03.122Z,39.40
2018-03-25T09:43:08.846Z,41.72
2018-03-25T09:44:15.344Z,40.60
2018-03-25T09:45:21.090Z,40.60
2018-03-25T09:46:26.849Z,41.17
2018-03-25T09:47:32.561Z,40.50
2018-03-25T09:48:38.421Z,41.53
2018-03-25T09:49:44.167Z,42.55
2018-03-25T09:50:49.949Z,44.78
2018-03-25T09:51:58.262Z,39.45
2018-03-25T09:53:04.842Z,38.05
2018-03-25T09:54:10.572Z,37.88
2018-03-25T09:55:17.459Z,38.65
2018-03-25T09:56:23.157Z,36.13
2018-03-25T09:57:28.929Z,36.60
2018-03-25T09:58:35.760Z,39.25
2018-03-25T09:59:42.101Z,36.53
2018-03-25T10:00:50.071Z,40.90
2018-03-25T10:02:02.164Z,40.45
2018-03-25T10:03:15.649Z,39.93
2018-03-25T10:04:22.227Z,39.77
2018-03-25T10:05:28.017Z,39.47
2018-03-25T10:06:33.749Z,35.97
2018-03-25T10:07:40.668Z,39.00
2018-03-25T10:08:46.634Z,36.92
2018-03-25T10:09:52.465Z,36.83
2018-03-25T10:10:58.187Z,35.53
2018-03-25T10:12:05.028Z,35.13
2018-03-25T10:13:10.945Z,36.38
2018-03-25T10:14:16.706Z,36.05
2018-03-25T10:15:22.585Z,34.55
2018-03-25T10:16:29.250Z,36.10
2018-03-25T10:17:35.789Z,33.90
2018-03-25T10:18:42.049Z,37.35
2018-03-25T10:19:48.027Z,37.67
2018-03-25T10:20:53.865Z,42.33
2018-03-25T10:21:59.653Z,41.80
2018-03-25T10:23:05.597Z,46.13
2018-03-25T10:24:11.353Z,38.53
2018-03-25T10:25:17.342Z,40.50
2018-03-25T10:26:23.882Z,42.42
2018-03-25T10:27:30.632Z,41.70
2018-03-25T10:28:36.506Z,43.95
2018-03-25T10:29:42.554Z,42.60
2018-03-25T10:30:48.102Z,43.67
2018-03-25T10:31:53.885Z,44.60
2018-03-25T10:32:59.920Z,40.58
2018-03-25T10:34:05.746Z,39.38
2018-03-25T10:35:11.575Z,41.33
2018-03-25T10:36:19.936Z,42.20
2018-03-25T10:37:25.966Z,45.00
2018-03-25T10:38:31.723Z,45.55
2018-03-25T10:39:37.244Z,44.88
2018-03-25T10:40:42.994Z,49.20
2018-03-25T10:41:48.734Z,48.47
2018-03-25T10:42:54.557Z,49.15
2018-03-25T10:44:00.310Z,46.33
2018-03-25T10:45:06.121Z,53.30
2018-03-25T10:46:12.897Z,47.38
2018-03-25T10:47:18.673Z,43.97
2018-03-25T10:48:24.481Z,52.17
2018-03-25T10:49:30.718Z,52.90
2018-03-25T10:50:36.710Z,49.80
2018-03-25T10:51:42.502Z,48.00
2018-03-25T10:52:49.083Z,50.85
2018-03-25T10:53:55.703Z,50.35
2018-03-25T10:55:01.670Z,49.47
2018-03-25T10:56:07.693Z,45.38
2018-03-25T10:57:13.982Z,49.75
2018-03-25T10:58:19.920Z,50.40
2018-03-25T10:59:26.017Z,48.95
2018-03-25T11:00:33.145Z,50.55
2018-03-25T11:01:39.321Z,47.45
2018-03-25T11:02:45.858Z,49.97
2018-03-25T11:03:51.748Z,44.60
2018-03-25T11:04:58.454Z,44.70
2018-03-25T11:06:04.407Z,52.50
2018-03-25T11:07:10.864Z,51.28
2018-03-25T11:08:17.035Z,49.05
2018-03-25T11:09:23.089Z,50.12
2018-03-25T11:10:29.419Z,46.40
2018-03-25T11:11:35.570Z,50.45
2018-03-25T11:12:41.504Z,50.45
2018-03-25T11:13:47.464Z,50.90
2018-03-25T11:14:54.454Z,42.67
2018-03-25T11:16:00.583Z,53.15
2018-03-25T11:17:06.792Z,48.90
2018-03-25T11:18:12.941Z,49.55
2018-03-25T11:19:20.111Z,46.70
2018-03-25T11:20:27.151Z,51.15
2018-03-25T11:21:34.012Z,48.78
2018-03-25T11:22:40.047Z,49.33
2018-03-25T11:23:46.167Z,50.10
2018-03-25T11:24:53.029Z,48.58
2018-03-25T11:26:00.088Z,59.85
2018-03-25T11:27:06.100Z,51.58
2018-03-25T11:28:12.233Z,44.10
2018-03-25T11:29:19.119Z,48.53
2018-03-25T11:30:25.106Z,50.28
2018-03-25T11:31:32.403Z,46.03
2018-03-25T11:32:38.577Z,52.05
2018-03-25T11:33:44.627Z,46.60
2018-03-25T11:34:50.681Z,50.55
2018-03-25T11:35:57.850Z,48.87
2018-03-25T11:37:03.898Z,50.12
2018-03-25T11:38:10.775Z,50.53
2018-03-25T11:39:16.815Z,45.88
2018-03-25T11:40:23.885Z,51.17
2018-03-25T11:41:31.205Z,48.08
2018-03-25T11:42:37.227Z,47.83
2018-03-25T11:43:43.974Z,49.78
2018-03-25T11:44:49.895Z,50.08
2018-03-25T11:45:56.770Z,50.28
2018-03-25T11:47:02.939Z,46.20
2018-03-25T11:48:08.991Z,51.88
2018-03-25T11:49:15.880Z,53.33
2018-03-25T11:50:21.916Z,48.42
2018-03-25T11:51:27.948Z,51.05
2018-03-25T11:52:33.897Z,52.10
2018-03-25T11:53:40.048Z,48.67
2018-03-25T11:54:46.056Z,49.55
2018-03-25T11:55:52.967Z,48.17
2018-03-25T11:56:58.998Z,49.78
2018-03-25T11:58:05.107Z,49.33
2018-03-25T11:59:11.732Z,46.83
2018-03-25T12:00:17.771Z,49.10
2018-03-25T12:01:23.910Z,50.85
2018-03-25T12:02:30.689Z,49.70
2018-03-25T12:03:36.724Z,50.67
2018-03-25T12:04:42.461Z,50.90
2018-03-25T12:05:49.015Z,54.50
2018-03-25T12:06:55.744Z,50.00
2018-03-25T12:08:01.653Z,49.78
2018-03-25T12:09:07.494Z,52.35
2018-03-25T12:10:13.397Z,49.83
2018-03-25T12:11:19.325Z,49.85
2018-03-25T12:12:25.429Z,44.13
2018-03-25T12:13:31.207Z,53.17
2018-03-25T12:14:38.219Z,46.28
2018-03-25T12:15:44.803Z,49.13
2018-03-25T12:16:50.594Z,44.97
2018-03-25T12:17:56.695Z,48.17
2018-03-25T12:19:02.500Z,48.03
2018-03-25T12:20:08.485Z,50.55
2018-03-25T12:21:14.534Z,48.95
2018-03-25T12:22:21.391Z,48.38
2018-03-25T12:23:27.463Z,40.97
2018-03-25T12:24:33.395Z,45.92
2018-03-25T12:25:39.496Z,46.28
2018-03-25T12:26:46.003Z,42.50
2018-03-25T12:27:51.865Z,42.97
2018-03-25T12:28:58.579Z,44.85
2018-03-25T12:30:04.512Z,43.00
2018-03-25T12:31:10.415Z,40.55
2018-03-25T12:32:16.514Z,42.58
2018-03-25T12:33:22.600Z,42.42
2018-03-25T12:34:31.680Z,44.58
2018-03-25T12:35:38.441Z,45.10
2018-03-25T12:36:45.123Z,44.92
2018-03-25T12:37:51.796Z,41.35
2018-03-25T12:38:57.583Z,45.53
2018-03-25T12:40:03.307Z,44.03
2018-03-25T12:41:09.090Z,45.40
2018-03-25T12:42:14.974Z,43.53
2018-03-25T12:43:21.153Z,45.10
2018-03-25T12:44:27.433Z,45.17
2018-03-25T12:45:33.848Z,45.17
2018-03-25T12:46:39.593Z,45.28
2018-03-25T12:47:45.210Z,42.00
2018-03-25T12:48:51.244Z,42.10
2018-03-25T12:49:57.943Z,42.67
2018-03-25T12:51:03.900Z,45.80
2018-03-25T12:52:09.826Z,46.17
2018-03-25T12:53:16.208Z,44.40
2018-03-25T12:54:22.144Z,46.00
2018-03-25T12:55:27.941Z,45.45
2018-03-25T12:56:34.452Z,45.70
2018-03-25T12:57:40.204Z,42.22
2018-03-25T12:58:45.971Z,44.05
2018-03-25T12:59:51.915Z,41.28
2018-03-25T13:00:57.708Z,44.20
2018-03-25T13:02:03.634Z,43.87
2018-03-25T13:03:10.434Z,42.78
2018-03-25T13:04:16.202Z,44.83
2018-03-25T13:05:24.043Z,45.28
2018-03-25T13:06:29.935Z,45.97
2018-03-25T13:07:35.750Z,45.10
2018-03-25T13:08:41.758Z,47.47
2018-03-25T13:09:47.735Z,43.87
2018-03-25T13:10:53.547Z,45.80
2018-03-25T13:12:00.053Z,46.88
2018-03-25T13:13:06.382Z,44.60
2018-03-25T13:14:12.633Z,44.92
2018-03-25T13:15:18.682Z,44.53
2018-03-25T13:16:24.421Z,37.58
2018-03-25T13:17:30.368Z,38.85
2018-03-25T13:18:36.318Z,42.15
2018-03-25T13:19:42.436Z,40.08
2018-03-25T13:20:48.404Z,40.90
2018-03-25T13:21:54.357Z,45.85
2018-03-25T13:23:00.368Z,45.00
2018-03-25T13:24:07.051Z,43.95
2018-03-25T13:25:13.531Z,43.47
2018-03-25T13:26:19.652Z,40.67
2018-03-25T13:27:26.176Z,47.92
2018-03-25T13:28:32.252Z,42.92
2018-03-25T13:29:38.232Z,38.15
2018-03-25T13:30:44.098Z,41.92
2018-03-25T13:31:50.211Z,40.22
2018-03-25T13:32:56.772Z,40.47
2018-03-25T13:34:04.113Z,43.17
2018-03-25T13:35:11.254Z,39.33
2018-03-25T13:36:18.925Z,42.83
2018-03-25T13:37:24.703Z,45.88
2018-03-25T13:38:30.509Z,42.65
2018-03-25T13:39:36.864Z,38.85
2018-03-25T13:40:43.633Z,40.97
2018-03-25T13:41:49.678Z,37.85
2018-03-25T13:42:56.319Z,38.65
2018-03-25T13:44:03.196Z,41.60
2018-03-25T13:45:09.544Z,42.47
2018-03-25T13:46:16.720Z,39.17
2018-03-25T13:47:23.456Z,44.28
2018-03-25T13:48:29.511Z,41.58
2018-03-25T13:49:37.302Z,39.88
2018-03-25T13:50:43.204Z,40.42
2018-03-25T13:51:50.179Z,45.17
2018-03-25T13:52:57.573Z,44.33
2018-03-25T13:54:03.492Z,44.80
2018-03-25T13:55:09.405Z,43.60
2018-03-25T13:56:16.366Z,46.92
2018-03-25T13:57:23.749Z,43.47
2018-03-25T13:58:30.249Z,44.70
2018-03-25T13:59:36.008Z,42.25
2018-03-25T14:00:41.990Z,41.08
2018-03-25T14:01:48.850Z,44.20
2018-03-25T14:02:55.655Z,41.15
2018-03-25T14:04:01.476Z,40.75
2018-03-25T14:05:08.085Z,40.63
2018-03-25T14:06:13.902Z,41.25
2018-03-25T14:07:19.861Z,41.70
2018-03-25T14:08:25.647Z,42.45
2018-03-25T14:09:31.365Z,41.33
2018-03-25T14:10:37.480Z,40.28